sensor_id;sensor_type;location;lat;lon;timestamp;P1;durP1;ratioP1;P2;durP2;ratioP2
6121;SDS011;3091;51.506;7.672;2023-09-19T00:00:20;17.83;;;17.03;;
6121;SDS011;3091;51.506;7.672;2023-09-19T00:02:55;17.30;;;16.50;;
6121;SDS011;3091;51.506;7.672;2023-09-19T00:05:24;17.87;;;16.97;;
6121;SDS011;3091;51.506;7.672;2023-09-19T00:07:56;16.87;;;16.07;;
6121;SDS011;3091;51.506;7.672;2023-09-19T00:10:25;16.40;;;15.60;;
6121;SDS011;3091;51.506;7.672;2023-09-19T00:12:54;31.23;;;16.67;;
6121;SDS011;3091;51.506;7.672;2023-09-19T00:15:24;17.07;;;16.07;;
6121;SDS011;3091;51.506;7.672;2023-09-19T00:17:51;17.53;;;16.63;;
6121;SDS011;3091;51.506;7.672;2023-09-19T00:20:20;16.73;;;15.93;;
6121;SDS011;3091;51.506;7.672;2023-09-19T00:22:48;17.80;;;16.50;;
6121;SDS011;3091;51.506;7.672;2023-09-19T00:25:15;17.30;;;16.20;;
6121;SDS011;3091;51.506;7.672;2023-09-19T00:27:42;17.13;;;16.20;;
6121;SDS011;3091;51.506;7.672;2023-09-19T00:30:10;17.00;;;16.20;;
6121;SDS011;3091;51.506;7.672;2023-09-19T00:32:39;16.60;;;15.80;;
6121;SDS011;3091;51.506;7.672;2023-09-19T00:35:06;16.70;;;15.90;;
6121;SDS011;3091;51.506;7.672;2023-09-19T00:37:34;16.40;;;15.60;;
6121;SDS011;3091;51.506;7.672;2023-09-19T00:40:03;16.20;;;15.40;;
6121;SDS011;3091;51.506;7.672;2023-09-19T00:42:31;16.43;;;15.63;;
6121;SDS011;3091;51.506;7.672;2023-09-19T00:45:01;17.30;;;16.53;;
6121;SDS011;3091;51.506;7.672;2023-09-19T00:47:28;17.17;;;16.37;;
6121;SDS011;3091;51.506;7.672;2023-09-19T00:49:54;17.37;;;16.57;;
6121;SDS011;3091;51.506;7.672;2023-09-19T00:52:21;18.60;;;17.27;;
6121;SDS011;3091;51.506;7.672;2023-09-19T00:54:49;17.00;;;16.23;;
6121;SDS011;3091;51.506;7.672;2023-09-19T00:57:15;19.70;;;17.13;;
6121;SDS011;3091;51.506;7.672;2023-09-19T00:59:42;17.30;;;16.60;;
6121;SDS011;3091;51.506;7.672;2023-09-19T01:02:08;17.50;;;16.70;;
6121;SDS011;3091;51.506;7.672;2023-09-19T01:04:35;17.03;;;16.33;;
6121;SDS011;3091;51.506;7.672;2023-09-19T01:07:04;16.97;;;16.27;;
6121;SDS011;3091;51.506;7.672;2023-09-19T01:09:30;17.90;;;17.00;;
6121;SDS011;3091;51.506;7.672;2023-09-19T01:11:58;18.20;;;17.30;;
6121;SDS011;3091;51.506;7.672;2023-09-19T01:14:42;17.27;;;16.50;;
6121;SDS011;3091;51.506;7.672;2023-09-19T01:17:14;17.57;;;16.77;;
6121;SDS011;3091;51.506;7.672;2023-09-19T01:22:37;16.50;;;15.80;;
6121;SDS011;3091;51.506;7.672;2023-09-19T01:30:27;16.30;;;15.70;;
6121;SDS011;3091;51.506;7.672;2023-09-19T01:32:57;17.63;;;16.73;;
6121;SDS011;3091;51.506;7.672;2023-09-19T01:35:24;16.90;;;16.20;;
6121;SDS011;3091;51.506;7.672;2023-09-19T01:37:51;16.90;;;16.10;;
6121;SDS011;3091;51.506;7.672;2023-09-19T01:40:18;17.20;;;16.50;;
6121;SDS011;3091;51.506;7.672;2023-09-19T01:42:59;17.87;;;16.77;;
6121;SDS011;3091;51.506;7.672;2023-09-19T01:50:42;16.87;;;16.07;;
6121;SDS011;3091;51.506;7.672;2023-09-19T01:53:19;17.37;;;16.60;;
6121;SDS011;3091;51.506;7.672;2023-09-19T01:55:48;18.30;;;17.50;;
6121;SDS011;3091;51.506;7.672;2023-09-19T02:00:44;18.50;;;17.20;;
6121;SDS011;3091;51.506;7.672;2023-09-19T02:03:13;17.40;;;16.50;;
6121;SDS011;3091;51.506;7.672;2023-09-19T02:05:40;16.80;;;16.10;;
6121;SDS011;3091;51.506;7.672;2023-09-19T02:08:06;17.30;;;16.60;;
6121;SDS011;3091;51.506;7.672;2023-09-19T02:10:33;17.60;;;16.90;;
6121;SDS011;3091;51.506;7.672;2023-09-19T02:12:59;17.40;;;16.70;;
6121;SDS011;3091;51.506;7.672;2023-09-19T02:15:25;18.23;;;17.33;;
6121;SDS011;3091;51.506;7.672;2023-09-19T02:17:51;17.43;;;16.43;;
6121;SDS011;3091;51.506;7.672;2023-09-19T02:20:18;18.10;;;17.30;;
6121;SDS011;3091;51.506;7.672;2023-09-19T02:22:45;17.33;;;16.63;;
6121;SDS011;3091;51.506;7.672;2023-09-19T02:25:13;17.30;;;16.50;;
6121;SDS011;3091;51.506;7.672;2023-09-19T02:27:40;17.07;;;16.37;;
6121;SDS011;3091;51.506;7.672;2023-09-19T02:30:07;17.37;;;16.50;;
6121;SDS011;3091;51.506;7.672;2023-09-19T02:32:33;17.80;;;16.90;;
6121;SDS011;3091;51.506;7.672;2023-09-19T02:35:06;17.27;;;16.57;;
6121;SDS011;3091;51.506;7.672;2023-09-19T02:37:32;17.40;;;16.70;;
6121;SDS011;3091;51.506;7.672;2023-09-19T02:39:58;17.97;;;16.70;;
6121;SDS011;3091;51.506;7.672;2023-09-19T02:42:24;17.63;;;16.93;;
6121;SDS011;3091;51.506;7.672;2023-09-19T02:44:50;17.03;;;16.33;;
6121;SDS011;3091;51.506;7.672;2023-09-19T02:47:16;18.03;;;17.23;;
6121;SDS011;3091;51.506;7.672;2023-09-19T02:49:43;17.40;;;16.60;;
6121;SDS011;3091;51.506;7.672;2023-09-19T02:52:09;17.37;;;16.53;;
6121;SDS011;3091;51.506;7.672;2023-09-19T02:54:36;16.30;;;15.60;;
6121;SDS011;3091;51.506;7.672;2023-09-19T02:57:02;17.50;;;16.80;;
6121;SDS011;3091;51.506;7.672;2023-09-19T02:59:31;17.73;;;16.83;;
6121;SDS011;3091;51.506;7.672;2023-09-19T03:01:57;17.20;;;16.50;;
6121;SDS011;3091;51.506;7.672;2023-09-19T03:04:23;17.17;;;16.47;;
6121;SDS011;3091;51.506;7.672;2023-09-19T03:06:51;17.47;;;16.60;;
6121;SDS011;3091;51.506;7.672;2023-09-19T03:09:17;17.00;;;16.40;;
6121;SDS011;3091;51.506;7.672;2023-09-19T03:11:46;17.87;;;16.50;;
6121;SDS011;3091;51.506;7.672;2023-09-19T03:14:12;17.50;;;16.80;;
6121;SDS011;3091;51.506;7.672;2023-09-19T03:16:39;17.60;;;16.70;;
6121;SDS011;3091;51.506;7.672;2023-09-19T03:19:05;16.93;;;16.23;;
6121;SDS011;3091;51.506;7.672;2023-09-19T03:21:32;17.20;;;16.50;;
6121;SDS011;3091;51.506;7.672;2023-09-19T03:23:58;17.87;;;16.87;;
6121;SDS011;3091;51.506;7.672;2023-09-19T03:26:24;17.13;;;16.43;;
6121;SDS011;3091;51.506;7.672;2023-09-19T03:28:51;17.03;;;16.33;;
6121;SDS011;3091;51.506;7.672;2023-09-19T03:31:17;16.90;;;16.20;;
6121;SDS011;3091;51.506;7.672;2023-09-19T03:33:43;17.67;;;16.50;;
6121;SDS011;3091;51.506;7.672;2023-09-19T03:36:09;16.50;;;15.80;;
6121;SDS011;3091;51.506;7.672;2023-09-19T03:38:38;16.30;;;15.60;;
6121;SDS011;3091;51.506;7.672;2023-09-19T03:41:04;16.90;;;16.10;;
6121;SDS011;3091;51.506;7.672;2023-09-19T03:43:31;18.20;;;16.90;;
6121;SDS011;3091;51.506;7.672;2023-09-19T03:46:01;16.17;;;15.47;;
6121;SDS011;3091;51.506;7.672;2023-09-19T03:48:29;17.70;;;16.90;;
6121;SDS011;3091;51.506;7.672;2023-09-19T03:50:55;17.73;;;16.83;;
6121;SDS011;3091;51.506;7.672;2023-09-19T03:53:22;17.47;;;16.77;;
6121;SDS011;3091;51.506;7.672;2023-09-19T03:55:48;16.80;;;16.10;;
6121;SDS011;3091;51.506;7.672;2023-09-19T03:58:15;17.53;;;16.43;;
6121;SDS011;3091;51.506;7.672;2023-09-19T04:00:41;16.83;;;16.13;;
6121;SDS011;3091;51.506;7.672;2023-09-19T04:03:07;16.47;;;15.87;;
6121;SDS011;3091;51.506;7.672;2023-09-19T04:05:33;18.03;;;17.13;;
6121;SDS011;3091;51.506;7.672;2023-09-19T04:07:59;17.33;;;16.60;;
6121;SDS011;3091;51.506;7.672;2023-09-19T04:10:28;17.10;;;16.40;;
6121;SDS011;3091;51.506;7.672;2023-09-19T04:12:55;16.93;;;16.23;;
6121;SDS011;3091;51.506;7.672;2023-09-19T04:15:21;17.10;;;16.30;;
6121;SDS011;3091;51.506;7.672;2023-09-19T04:17:50;16.70;;;16.00;;
6121;SDS011;3091;51.506;7.672;2023-09-19T04:20:17;16.43;;;15.83;;
6121;SDS011;3091;51.506;7.672;2023-09-19T04:22:44;17.00;;;16.30;;
6121;SDS011;3091;51.506;7.672;2023-09-19T04:25:11;16.50;;;15.90;;
6121;SDS011;3091;51.506;7.672;2023-09-19T04:27:37;16.70;;;16.10;;
6121;SDS011;3091;51.506;7.672;2023-09-19T04:30:03;19.43;;;17.77;;
6121;SDS011;3091;51.506;7.672;2023-09-19T04:32:35;16.80;;;16.20;;
6121;SDS011;3091;51.506;7.672;2023-09-19T04:35:04;17.33;;;16.63;;
6121;SDS011;3091;51.506;7.672;2023-09-19T04:37:30;17.47;;;16.77;;
6121;SDS011;3091;51.506;7.672;2023-09-19T04:39:57;17.53;;;16.73;;
6121;SDS011;3091;51.506;7.672;2023-09-19T04:42:23;16.80;;;16.10;;
6121;SDS011;3091;51.506;7.672;2023-09-19T04:44:50;16.50;;;15.80;;
6121;SDS011;3091;51.506;7.672;2023-09-19T04:47:19;16.50;;;15.80;;
6121;SDS011;3091;51.506;7.672;2023-09-19T04:49:47;17.17;;;16.37;;
6121;SDS011;3091;51.506;7.672;2023-09-19T04:52:13;18.17;;;17.23;;
6121;SDS011;3091;51.506;7.672;2023-09-19T04:54:40;16.60;;;15.90;;
6121;SDS011;3091;51.506;7.672;2023-09-19T04:57:06;17.00;;;16.30;;
6121;SDS011;3091;51.506;7.672;2023-09-19T04:59:32;17.20;;;16.20;;
6121;SDS011;3091;51.506;7.672;2023-09-19T05:01:58;16.80;;;16.10;;
6121;SDS011;3091;51.506;7.672;2023-09-19T05:04:24;16.90;;;16.20;;
6121;SDS011;3091;51.506;7.672;2023-09-19T05:06:50;17.77;;;16.90;;
6121;SDS011;3091;51.506;7.672;2023-09-19T05:09:17;17.10;;;16.40;;
6121;SDS011;3091;51.506;7.672;2023-09-19T05:11:45;16.90;;;16.20;;
6121;SDS011;3091;51.506;7.672;2023-09-19T05:14:11;16.90;;;16.20;;
6121;SDS011;3091;51.506;7.672;2023-09-19T05:16:37;17.70;;;16.70;;
6121;SDS011;3091;51.506;7.672;2023-09-19T05:19:03;17.97;;;16.70;;
6121;SDS011;3091;51.506;7.672;2023-09-19T05:21:30;17.70;;;16.80;;
6121;SDS011;3091;51.506;7.672;2023-09-19T05:23:56;16.87;;;16.17;;
6121;SDS011;3091;51.506;7.672;2023-09-19T05:26:22;19.40;;;18.60;;
6121;SDS011;3091;51.506;7.672;2023-09-19T05:28:48;19.97;;;19.07;;
6121;SDS011;3091;51.506;7.672;2023-09-19T05:31:14;19.30;;;18.50;;
6121;SDS011;3091;51.506;7.672;2023-09-19T05:33:41;19.17;;;18.37;;
6121;SDS011;3091;51.506;7.672;2023-09-19T05:36:07;19.93;;;19.03;;
6121;SDS011;3091;51.506;7.672;2023-09-19T05:38:37;19.67;;;18.87;;
6121;SDS011;3091;51.506;7.672;2023-09-19T05:41:05;20.33;;;19.43;;
6121;SDS011;3091;51.506;7.672;2023-09-19T05:43:33;19.40;;;18.60;;
6121;SDS011;3091;51.506;7.672;2023-09-19T05:45:59;19.63;;;18.83;;
6121;SDS011;3091;51.506;7.672;2023-09-19T05:48:28;19.90;;;19.10;;
6121;SDS011;3091;51.506;7.672;2023-09-19T05:50:54;20.40;;;19.50;;
6121;SDS011;3091;51.506;7.672;2023-09-19T05:53:20;19.20;;;18.50;;
6121;SDS011;3091;51.506;7.672;2023-09-19T05:55:47;20.00;;;19.20;;
6121;SDS011;3091;51.506;7.672;2023-09-19T05:58:14;21.50;;;19.53;;
6121;SDS011;3091;51.506;7.672;2023-09-19T06:00:42;20.90;;;20.00;;
6121;SDS011;3091;51.506;7.672;2023-09-19T06:03:09;20.10;;;19.30;;
6121;SDS011;3091;51.506;7.672;2023-09-19T06:05:39;21.40;;;20.43;;
6121;SDS011;3091;51.506;7.672;2023-09-19T06:08:06;20.03;;;19.03;;
6121;SDS011;3091;51.506;7.672;2023-09-19T06:10:33;20.77;;;19.40;;
6121;SDS011;3091;51.506;7.672;2023-09-19T06:13:02;19.30;;;18.50;;
6121;SDS011;3091;51.506;7.672;2023-09-19T06:15:37;19.43;;;18.33;;
6121;SDS011;3091;51.506;7.672;2023-09-19T06:18:05;19.00;;;18.20;;
6121;SDS011;3091;51.506;7.672;2023-09-19T06:20:38;18.63;;;17.83;;
6121;SDS011;3091;51.506;7.672;2023-09-19T06:23:09;18.77;;;17.80;;
6121;SDS011;3091;51.506;7.672;2023-09-19T06:25:37;18.40;;;17.70;;
6121;SDS011;3091;51.506;7.672;2023-09-19T06:28:04;18.77;;;18.07;;
6121;SDS011;3091;51.506;7.672;2023-09-19T06:30:32;19.00;;;18.10;;
6121;SDS011;3091;51.506;7.672;2023-09-19T06:32:59;19.00;;;17.93;;
6121;SDS011;3091;51.506;7.672;2023-09-19T06:35:25;18.20;;;17.50;;
6121;SDS011;3091;51.506;7.672;2023-09-19T06:37:52;18.17;;;17.23;;
6121;SDS011;3091;51.506;7.672;2023-09-19T06:40:18;18.13;;;17.33;;
6121;SDS011;3091;51.506;7.672;2023-09-19T06:42:45;18.40;;;17.50;;
6121;SDS011;3091;51.506;7.672;2023-09-19T06:45:14;17.40;;;16.70;;
6121;SDS011;3091;51.506;7.672;2023-09-19T06:47:50;18.47;;;17.40;;
6121;SDS011;3091;51.506;7.672;2023-09-19T06:50:17;18.77;;;17.43;;
6121;SDS011;3091;51.506;7.672;2023-09-19T06:52:44;18.20;;;17.50;;
6121;SDS011;3091;51.506;7.672;2023-09-19T06:55:11;17.33;;;16.63;;
6121;SDS011;3091;51.506;7.672;2023-09-19T06:57:38;19.93;;;19.03;;
6121;SDS011;3091;51.506;7.672;2023-09-19T07:00:06;18.70;;;18.00;;
6121;SDS011;3091;51.506;7.672;2023-09-19T07:02:54;19.53;;;18.77;;
6121;SDS011;3091;51.506;7.672;2023-09-19T07:05:20;17.93;;;17.23;;
6121;SDS011;3091;51.506;7.672;2023-09-19T07:07:46;18.60;;;17.90;;
6121;SDS011;3091;51.506;7.672;2023-09-19T07:10:12;18.80;;;18.10;;
6121;SDS011;3091;51.506;7.672;2023-09-19T07:12:39;18.40;;;17.60;;
6121;SDS011;3091;51.506;7.672;2023-09-19T07:15:07;21.83;;;19.00;;
6121;SDS011;3091;51.506;7.672;2023-09-19T07:17:33;20.27;;;19.30;;
6121;SDS011;3091;51.506;7.672;2023-09-19T07:19:59;18.70;;;18.00;;
6121;SDS011;3091;51.506;7.672;2023-09-19T07:22:26;18.50;;;17.80;;
6121;SDS011;3091;51.506;7.672;2023-09-19T07:24:52;18.60;;;17.90;;
6121;SDS011;3091;51.506;7.672;2023-09-19T07:27:18;18.30;;;17.60;;
6121;SDS011;3091;51.506;7.672;2023-09-19T07:29:44;19.87;;;18.77;;
6121;SDS011;3091;51.506;7.672;2023-09-19T07:32:10;18.50;;;17.80;;
6121;SDS011;3091;51.506;7.672;2023-09-19T07:34:39;18.40;;;17.70;;
6121;SDS011;3091;51.506;7.672;2023-09-19T07:37:05;18.30;;;17.60;;
6121;SDS011;3091;51.506;7.672;2023-09-19T07:39:33;19.33;;;17.70;;
6121;SDS011;3091;51.506;7.672;2023-09-19T07:41:59;17.80;;;17.20;;
6121;SDS011;3091;51.506;7.672;2023-09-19T07:44:25;18.20;;;17.50;;
6121;SDS011;3091;51.506;7.672;2023-09-19T07:46:51;17.77;;;17.10;;
6121;SDS011;3091;51.506;7.672;2023-09-19T07:49:18;19.10;;;18.30;;
6121;SDS011;3091;51.506;7.672;2023-09-19T07:51:47;19.87;;;18.87;;
6121;SDS011;3091;51.506;7.672;2023-09-19T07:54:13;20.37;;;19.37;;
6121;SDS011;3091;51.506;7.672;2023-09-19T07:56:40;19.10;;;18.40;;
6121;SDS011;3091;51.506;7.672;2023-09-19T07:59:06;18.17;;;17.47;;
6121;SDS011;3091;51.506;7.672;2023-09-19T08:01:33;18.00;;;17.10;;
6121;SDS011;3091;51.506;7.672;2023-09-19T08:04:00;18.73;;;17.93;;
6121;SDS011;3091;51.506;7.672;2023-09-19T08:06:26;18.70;;;17.50;;
6121;SDS011;3091;51.506;7.672;2023-09-19T08:08:55;17.90;;;17.20;;
6121;SDS011;3091;51.506;7.672;2023-09-19T08:11:23;18.33;;;17.53;;
6121;SDS011;3091;51.506;7.672;2023-09-19T08:13:49;17.50;;;16.80;;
6121;SDS011;3091;51.506;7.672;2023-09-19T08:16:16;18.23;;;17.60;;
6121;SDS011;3091;51.506;7.672;2023-09-19T08:18:46;19.10;;;18.20;;
6121;SDS011;3091;51.506;7.672;2023-09-19T08:21:13;18.30;;;17.60;;
6121;SDS011;3091;51.506;7.672;2023-09-19T08:23:39;18.77;;;18.07;;
6121;SDS011;3091;51.506;7.672;2023-09-19T08:26:06;19.50;;;18.80;;
6121;SDS011;3091;51.506;7.672;2023-09-19T08:28:32;20.23;;;19.33;;
6121;SDS011;3091;51.506;7.672;2023-09-19T08:31:07;20.67;;;19.87;;
6121;SDS011;3091;51.506;7.672;2023-09-19T08:33:36;21.10;;;20.30;;
6121;SDS011;3091;51.506;7.672;2023-09-19T08:36:05;20.10;;;19.40;;
6121;SDS011;3091;51.506;7.672;2023-09-19T08:38:34;20.10;;;19.30;;
6121;SDS011;3091;51.506;7.672;2023-09-19T08:41:04;19.90;;;19.10;;
6121;SDS011;3091;51.506;7.672;2023-09-19T08:43:30;20.30;;;19.43;;
6121;SDS011;3091;51.506;7.672;2023-09-19T08:46:20;20.30;;;19.50;;
6121;SDS011;3091;51.506;7.672;2023-09-19T08:48:46;19.63;;;18.83;;
6121;SDS011;3091;51.506;7.672;2023-09-19T08:51:17;20.77;;;19.70;;
6121;SDS011;3091;51.506;7.672;2023-09-19T08:56:29;20.60;;;19.60;;
6121;SDS011;3091;51.506;7.672;2023-09-19T08:59:00;19.90;;;19.17;;
6121;SDS011;3091;51.506;7.672;2023-09-19T09:01:27;21.87;;;20.80;;
6121;SDS011;3091;51.506;7.672;2023-09-19T09:03:54;21.50;;;20.53;;
6121;SDS011;3091;51.506;7.672;2023-09-19T09:06:20;19.20;;;18.40;;
6121;SDS011;3091;51.506;7.672;2023-09-19T09:08:46;19.57;;;18.87;;
6121;SDS011;3091;51.506;7.672;2023-09-19T09:11:13;19.20;;;18.40;;
6121;SDS011;3091;51.506;7.672;2023-09-19T09:13:40;20.20;;;19.20;;
6121;SDS011;3091;51.506;7.672;2023-09-19T09:16:06;21.00;;;19.70;;
6121;SDS011;3091;51.506;7.672;2023-09-19T09:18:32;21.07;;;20.27;;
6121;SDS011;3091;51.506;7.672;2023-09-19T09:20:59;20.33;;;19.40;;
6121;SDS011;3091;51.506;7.672;2023-09-19T09:23:26;20.47;;;19.57;;
6121;SDS011;3091;51.506;7.672;2023-09-19T09:25:57;21.23;;;20.23;;
6121;SDS011;3091;51.506;7.672;2023-09-19T09:28:27;19.87;;;19.03;;
6121;SDS011;3091;51.506;7.672;2023-09-19T09:30:54;19.13;;;18.23;;
6121;SDS011;3091;51.506;7.672;2023-09-19T09:33:21;19.40;;;18.70;;
6121;SDS011;3091;51.506;7.672;2023-09-19T09:35:51;21.03;;;20.23;;
6121;SDS011;3091;51.506;7.672;2023-09-19T09:38:21;23.20;;;22.10;;
6121;SDS011;3091;51.506;7.672;2023-09-19T09:40:52;21.20;;;20.43;;
6121;SDS011;3091;51.506;7.672;2023-09-19T09:48:48;22.30;;;21.50;;
6121;SDS011;3091;51.506;7.672;2023-09-19T09:51:34;22.10;;;21.27;;
6121;SDS011;3091;51.506;7.672;2023-09-19T09:54:10;20.60;;;19.90;;
6121;SDS011;3091;51.506;7.672;2023-09-19T09:56:51;19.63;;;18.90;;
6121;SDS011;3091;51.506;7.672;2023-09-19T09:59:18;21.03;;;20.03;;
6121;SDS011;3091;51.506;7.672;2023-09-19T10:01:51;18.53;;;17.93;;
6121;SDS011;3091;51.506;7.672;2023-09-19T10:04:28;21.60;;;20.70;;
6121;SDS011;3091;51.506;7.672;2023-09-19T10:07:01;20.97;;;20.17;;
6121;SDS011;3091;51.506;7.672;2023-09-19T10:09:44;21.83;;;21.03;;
6121;SDS011;3091;51.506;7.672;2023-09-19T10:12:10;17.13;;;16.53;;
6121;SDS011;3091;51.506;7.672;2023-09-19T10:14:38;19.00;;;18.10;;
6121;SDS011;3091;51.506;7.672;2023-09-19T10:17:09;20.10;;;19.30;;
6121;SDS011;3091;51.506;7.672;2023-09-19T10:22:02;22.83;;;22.03;;
6121;SDS011;3091;51.506;7.672;2023-09-19T10:24:29;22.10;;;21.13;;
6121;SDS011;3091;51.506;7.672;2023-09-19T10:26:56;21.80;;;21.00;;
6121;SDS011;3091;51.506;7.672;2023-09-19T10:29:22;22.27;;;21.37;;
6121;SDS011;3091;51.506;7.672;2023-09-19T10:31:51;24.27;;;22.90;;
6121;SDS011;3091;51.506;7.672;2023-09-19T10:34:18;23.20;;;22.40;;
6121;SDS011;3091;51.506;7.672;2023-09-19T10:36:48;24.77;;;23.67;;
6121;SDS011;3091;51.506;7.672;2023-09-19T10:39:16;26.77;;;25.60;;
6121;SDS011;3091;51.506;7.672;2023-09-19T10:41:47;23.70;;;22.80;;
6121;SDS011;3091;51.506;7.672;2023-09-19T10:44:18;22.93;;;22.13;;
6121;SDS011;3091;51.506;7.672;2023-09-19T10:46:46;23.67;;;22.70;;
6121;SDS011;3091;51.506;7.672;2023-09-19T10:49:13;22.03;;;21.33;;
6121;SDS011;3091;51.506;7.672;2023-09-19T10:51:41;16.83;;;16.23;;
6121;SDS011;3091;51.506;7.672;2023-09-19T10:54:10;22.60;;;21.60;;
6121;SDS011;3091;51.506;7.672;2023-09-19T10:56:38;24.27;;;23.30;;
6121;SDS011;3091;51.506;7.672;2023-09-19T10:59:14;23.07;;;22.20;;
6121;SDS011;3091;51.506;7.672;2023-09-19T11:01:45;18.30;;;17.60;;
6121;SDS011;3091;51.506;7.672;2023-09-19T11:07:08;19.80;;;19.10;;
6121;SDS011;3091;51.506;7.672;2023-09-19T11:12:11;23.67;;;22.70;;
6121;SDS011;3091;51.506;7.672;2023-09-19T11:14:38;23.70;;;22.90;;
6121;SDS011;3091;51.506;7.672;2023-09-19T11:22:21;22.60;;;21.60;;
6121;SDS011;3091;51.506;7.672;2023-09-19T11:24:47;25.67;;;24.67;;
6121;SDS011;3091;51.506;7.672;2023-09-19T11:27:15;24.80;;;23.93;;
6121;SDS011;3091;51.506;7.672;2023-09-19T11:29:43;24.50;;;23.60;;
6121;SDS011;3091;51.506;7.672;2023-09-19T11:32:09;24.93;;;24.03;;
6121;SDS011;3091;51.506;7.672;2023-09-19T11:39:39;25.33;;;24.43;;
6121;SDS011;3091;51.506;7.672;2023-09-19T11:43:08;25.53;;;24.53;;
6121;SDS011;3091;51.506;7.672;2023-09-19T11:45:04;25.93;;;24.93;;
6121;SDS011;3091;51.506;7.672;2023-09-19T11:47:30;26.33;;;25.43;;
6121;SDS011;3091;51.506;7.672;2023-09-19T11:49:57;25.33;;;24.43;;
6121;SDS011;3091;51.506;7.672;2023-09-19T11:52:26;25.67;;;24.70;;
6121;SDS011;3091;51.506;7.672;2023-09-19T11:54:59;25.83;;;24.93;;
6121;SDS011;3091;51.506;7.672;2023-09-19T11:57:27;25.47;;;24.37;;
6121;SDS011;3091;51.506;7.672;2023-09-19T11:59:55;20.93;;;20.17;;
6121;SDS011;3091;51.506;7.672;2023-09-19T12:02:37;26.63;;;25.33;;
6121;SDS011;3091;51.506;7.672;2023-09-19T12:05:07;25.70;;;24.80;;
6121;SDS011;3091;51.506;7.672;2023-09-19T12:07:42;19.93;;;19.23;;
6121;SDS011;3091;51.506;7.672;2023-09-19T12:10:15;27.07;;;25.97;;
6121;SDS011;3091;51.506;7.672;2023-09-19T12:12:48;27.53;;;26.37;;
6121;SDS011;3091;51.506;7.672;2023-09-19T12:15:17;19.00;;;18.30;;
6121;SDS011;3091;51.506;7.672;2023-09-19T12:17:53;24.83;;;23.70;;
6121;SDS011;3091;51.506;7.672;2023-09-19T12:20:20;20.70;;;19.90;;
6121;SDS011;3091;51.506;7.672;2023-09-19T12:22:46;20.90;;;19.97;;
6121;SDS011;3091;51.506;7.672;2023-09-19T12:25:14;22.67;;;21.57;;
6121;SDS011;3091;51.506;7.672;2023-09-19T12:27:45;24.30;;;23.50;;
6121;SDS011;3091;51.506;7.672;2023-09-19T12:30:12;25.03;;;24.13;;
6121;SDS011;3091;51.506;7.672;2023-09-19T12:32:42;20.00;;;19.20;;
6121;SDS011;3091;51.506;7.672;2023-09-19T12:35:09;25.90;;;24.90;;
6121;SDS011;3091;51.506;7.672;2023-09-19T12:37:43;23.60;;;22.80;;
6121;SDS011;3091;51.506;7.672;2023-09-19T12:40:18;24.50;;;23.43;;
6121;SDS011;3091;51.506;7.672;2023-09-19T12:42:49;26.33;;;25.43;;
6121;SDS011;3091;51.506;7.672;2023-09-19T12:45:16;18.90;;;18.20;;
6121;SDS011;3091;51.506;7.672;2023-09-19T12:50:28;24.07;;;23.27;;
6121;SDS011;3091;51.506;7.672;2023-09-19T12:52:54;22.03;;;21.23;;
6121;SDS011;3091;51.506;7.672;2023-09-19T12:55:30;25.57;;;24.57;;
6121;SDS011;3091;51.506;7.672;2023-09-19T12:58:14;26.17;;;25.23;;
6121;SDS011;3091;51.506;7.672;2023-09-19T13:00:44;25.27;;;24.10;;
6121;SDS011;3091;51.506;7.672;2023-09-19T13:03:13;25.20;;;24.30;;
6121;SDS011;3091;51.506;7.672;2023-09-19T13:05:50;24.13;;;23.33;;
6121;SDS011;3091;51.506;7.672;2023-09-19T13:08:20;23.70;;;22.90;;
6121;SDS011;3091;51.506;7.672;2023-09-19T13:13:48;24.93;;;23.90;;
6121;SDS011;3091;51.506;7.672;2023-09-19T13:16:15;20.00;;;19.20;;
6121;SDS011;3091;51.506;7.672;2023-09-19T13:21:11;20.20;;;19.50;;
6121;SDS011;3091;51.506;7.672;2023-09-19T13:23:51;18.30;;;17.50;;
6121;SDS011;3091;51.506;7.672;2023-09-19T13:26:17;21.77;;;20.97;;
6121;SDS011;3091;51.506;7.672;2023-09-19T13:28:44;23.90;;;23.00;;
6121;SDS011;3091;51.506;7.672;2023-09-19T13:31:10;20.73;;;20.03;;
6121;SDS011;3091;51.506;7.672;2023-09-19T13:33:42;19.70;;;19.00;;
6121;SDS011;3091;51.506;7.672;2023-09-19T13:36:08;24.43;;;23.53;;
6121;SDS011;3091;51.506;7.672;2023-09-19T13:38:34;23.03;;;22.07;;
6121;SDS011;3091;51.506;7.672;2023-09-19T13:41:00;20.30;;;19.60;;
6121;SDS011;3091;51.506;7.672;2023-09-19T13:43:27;23.50;;;22.70;;
6121;SDS011;3091;51.506;7.672;2023-09-19T13:45:54;23.50;;;22.50;;
6121;SDS011;3091;51.506;7.672;2023-09-19T13:48:22;23.50;;;22.70;;
6121;SDS011;3091;51.506;7.672;2023-09-19T13:50:49;24.07;;;23.27;;
6121;SDS011;3091;51.506;7.672;2023-09-19T13:53:15;23.30;;;22.50;;
6121;SDS011;3091;51.506;7.672;2023-09-19T13:55:42;23.37;;;22.47;;
6121;SDS011;3091;51.506;7.672;2023-09-19T13:58:10;22.70;;;21.90;;
6121;SDS011;3091;51.506;7.672;2023-09-19T14:00:37;22.77;;;21.97;;
6121;SDS011;3091;51.506;7.672;2023-09-19T14:03:03;22.57;;;21.77;;
6121;SDS011;3091;51.506;7.672;2023-09-19T14:05:30;22.00;;;21.30;;
6121;SDS011;3091;51.506;7.672;2023-09-19T14:07:56;24.43;;;22.43;;
6121;SDS011;3091;51.506;7.672;2023-09-19T14:10:24;18.30;;;17.50;;
6121;SDS011;3091;51.506;7.672;2023-09-19T14:12:52;21.70;;;20.90;;
6121;SDS011;3091;51.506;7.672;2023-09-19T14:15:18;21.50;;;20.70;;
6121;SDS011;3091;51.506;7.672;2023-09-19T14:17:44;23.50;;;22.70;;
6121;SDS011;3091;51.506;7.672;2023-09-19T14:20:11;19.67;;;18.97;;
6121;SDS011;3091;51.506;7.672;2023-09-19T14:22:37;22.00;;;21.10;;
6121;SDS011;3091;51.506;7.672;2023-09-19T14:25:04;21.00;;;20.13;;
6121;SDS011;3091;51.506;7.672;2023-09-19T14:27:30;20.70;;;19.90;;
6121;SDS011;3091;51.506;7.672;2023-09-19T14:29:56;19.90;;;19.20;;
6121;SDS011;3091;51.506;7.672;2023-09-19T14:32:22;20.20;;;19.50;;
6121;SDS011;3091;51.506;7.672;2023-09-19T14:34:49;20.20;;;19.50;;
6121;SDS011;3091;51.506;7.672;2023-09-19T14:37:15;19.83;;;19.13;;
6121;SDS011;3091;51.506;7.672;2023-09-19T14:39:46;19.70;;;19.00;;
6121;SDS011;3091;51.506;7.672;2023-09-19T14:42:12;19.30;;;18.60;;
6121;SDS011;3091;51.506;7.672;2023-09-19T14:44:42;19.80;;;18.90;;
6121;SDS011;3091;51.506;7.672;2023-09-19T14:47:08;22.70;;;21.90;;
6121;SDS011;3091;51.506;7.672;2023-09-19T14:49:38;19.50;;;18.80;;
6121;SDS011;3091;51.506;7.672;2023-09-19T14:52:08;21.10;;;20.30;;
6121;SDS011;3091;51.506;7.672;2023-09-19T14:54:34;20.27;;;19.37;;
6121;SDS011;3091;51.506;7.672;2023-09-19T14:57:02;20.30;;;19.50;;
6121;SDS011;3091;51.506;7.672;2023-09-19T14:59:33;19.80;;;19.10;;
6121;SDS011;3091;51.506;7.672;2023-09-19T15:02:08;19.50;;;18.80;;
6121;SDS011;3091;51.506;7.672;2023-09-19T15:04:34;19.27;;;18.57;;
6121;SDS011;3091;51.506;7.672;2023-09-19T15:07:00;18.87;;;18.17;;
6121;SDS011;3091;51.506;7.672;2023-09-19T15:09:27;19.93;;;19.23;;
6121;SDS011;3091;51.506;7.672;2023-09-19T15:12:04;19.40;;;18.70;;
6121;SDS011;3091;51.506;7.672;2023-09-19T15:14:30;20.30;;;19.50;;
6121;SDS011;3091;51.506;7.672;2023-09-19T15:16:56;19.93;;;19.03;;
6121;SDS011;3091;51.506;7.672;2023-09-19T15:19:22;19.40;;;18.70;;
6121;SDS011;3091;51.506;7.672;2023-09-19T15:21:48;19.13;;;18.43;;
6121;SDS011;3091;51.506;7.672;2023-09-19T15:24:14;19.10;;;18.40;;
6121;SDS011;3091;51.506;7.672;2023-09-19T15:26:41;18.40;;;17.80;;
6121;SDS011;3091;51.506;7.672;2023-09-19T15:29:09;19.10;;;18.40;;
6121;SDS011;3091;51.506;7.672;2023-09-19T15:31:36;19.17;;;18.10;;
6121;SDS011;3091;51.506;7.672;2023-09-19T15:34:02;18.63;;;17.70;;
6121;SDS011;3091;51.506;7.672;2023-09-19T15:36:28;19.20;;;18.50;;
6121;SDS011;3091;51.506;7.672;2023-09-19T15:41:24;19.50;;;18.80;;
6121;SDS011;3091;51.506;7.672;2023-09-19T15:43:51;18.80;;;18.10;;
6121;SDS011;3091;51.506;7.672;2023-09-19T15:46:17;18.87;;;18.17;;